Terminal Aerodrome Forecast
Issued by NWS Charleston, WV

Current Version | Previous Version | Text Only | Print | Product List | Glossary Off
Versions: 1 2 3 4 5 6 7 8 9 10 11 12 13 14 15 16 17 18 19 20 21 22

889
FTUS41 KRLX 231137
TAFBKW
TAF
KBKW 231137Z 2312/2412 00000KT P6SM FEW040
     FM231400 11005KT P6SM BKN030
     FM240100 13005KT 6SM -SHRA BKN020
     FM240300 12005KT P6SM BKN015
     FM240500 14005KT P6SM BKN010=

USA.gov is the U.S. government's official web portal to all federal, state and local government web resources and services.